createdAt,value
2022-10-29T00:02:03.155Z,99.90
2022-10-29T00:04:30.172Z,99.90
2022-10-29T00:06:56.889Z,99.90
2022-10-29T00:09:23.555Z,99.90
2022-10-29T00:11:50.285Z,99.90
2022-10-29T00:14:17.390Z,99.90
2022-10-29T00:16:44.138Z,99.90
2022-10-29T00:19:10.918Z,99.90
2022-10-29T00:21:38.096Z,99.90
2022-10-29T00:24:05.337Z,99.90
2022-10-29T00:26:32.089Z,99.90
2022-10-29T00:28:58.890Z,99.90
2022-10-29T00:31:27.229Z,99.90
2022-10-29T00:33:55.549Z,99.90
2022-10-29T00:36:27.581Z,99.90
2022-10-29T00:38:55.160Z,99.90
2022-10-29T00:41:28.765Z,99.90
2022-10-29T00:44:14.197Z,99.90
2022-10-29T00:47:11.018Z,99.90
2022-10-29T00:49:40.460Z,99.90
2022-10-29T00:52:08.716Z,99.90
2022-10-29T00:54:39.554Z,99.90
2022-10-29T00:57:18.846Z,99.90
2022-10-29T01:02:20.415Z,99.90
2022-10-29T01:04:47.225Z,99.90
2022-10-29T01:07:14.256Z,99.90
2022-10-29T01:09:41.563Z,99.90
2022-10-29T01:12:36.238Z,99.90
2022-10-29T01:15:17.826Z,99.90
2022-10-29T01:17:59.424Z,99.90
2022-10-29T01:20:50.164Z,99.90
2022-10-29T01:23:53.104Z,99.90
2022-10-29T01:26:58.914Z,99.90
2022-10-29T01:29:34.428Z,99.90
2022-10-29T01:32:04.286Z,99.90
2022-10-29T01:34:33.990Z,99.90
2022-10-29T01:37:20.960Z,99.90
2022-10-29T01:40:16.130Z,99.90
2022-10-29T01:42:53.436Z,99.90
2022-10-29T01:45:50.655Z,99.90
2022-10-29T01:48:26.626Z,99.90
2022-10-29T01:50:58.171Z,99.90
2022-10-29T01:53:26.342Z,99.90
2022-10-29T01:55:53.086Z,99.90
2022-10-29T01:58:19.928Z,99.90
2022-10-29T02:01:06.650Z,99.90
2022-10-29T02:03:54.127Z,99.90
2022-10-29T02:07:03.003Z,99.90
2022-10-29T02:09:41.925Z,99.90
2022-10-29T02:12:23.521Z,99.90
2022-10-29T02:15:00.131Z,99.90
2022-10-29T02:17:27.130Z,99.90
2022-10-29T02:19:53.844Z,99.90
2022-10-29T02:22:20.479Z,99.90
2022-10-29T02:24:47.370Z,99.90
2022-10-29T02:27:14.137Z,99.90
2022-10-29T02:29:41.495Z,99.90
2022-10-29T02:32:08.218Z,99.90
2022-10-29T02:34:34.866Z,99.90
2022-10-29T02:37:01.563Z,99.90
2022-10-29T02:39:28.635Z,99.90
2022-10-29T02:41:55.378Z,99.90
2022-10-29T02:44:22.051Z,99.90
2022-10-29T02:46:49.111Z,99.90
2022-10-29T02:49:15.767Z,99.90
2022-10-29T02:51:42.424Z,99.90
2022-10-29T02:54:09.121Z,99.90
2022-10-29T02:56:35.768Z,99.90
2022-10-29T02:59:04.292Z,99.90
2022-10-29T03:01:33.477Z,99.90
2022-10-29T03:04:00.319Z,99.90
2022-10-29T03:06:27.056Z,99.90
2022-10-29T03:08:53.769Z,99.90
2022-10-29T03:11:21.278Z,99.90
2022-10-29T03:13:47.979Z,99.90
2022-10-29T03:16:14.679Z,99.90
2022-10-29T03:18:41.326Z,99.90
2022-10-29T03:21:08.113Z,99.90
2022-10-29T03:23:34.939Z,99.90
2022-10-29T03:26:01.856Z,99.90
2022-10-29T03:28:28.591Z,99.90
2022-10-29T03:30:55.393Z,99.90
2022-10-29T03:33:22.545Z,99.90
2022-10-29T03:35:49.257Z,99.90
2022-10-29T03:38:15.969Z,99.90
2022-10-29T03:40:42.978Z,99.90
2022-10-29T03:43:09.630Z,99.90
2022-10-29T03:45:36.352Z,99.90
2022-10-29T03:48:05.083Z,99.90
2022-10-29T03:50:31.734Z,99.90
2022-10-29T03:52:58.504Z,99.90
2022-10-29T03:55:25.246Z,99.90
2022-10-29T03:57:51.883Z,99.90
2022-10-29T04:00:18.717Z,99.90
2022-10-29T04:02:45.431Z,99.90
2022-10-29T04:05:12.208Z,99.90
2022-10-29T04:07:38.941Z,99.90
2022-10-29T04:10:05.967Z,99.90
2022-10-29T04:12:32.674Z,99.90
2022-10-29T04:14:59.394Z,99.90
2022-10-29T04:17:26.062Z,99.90
2022-10-29T04:19:52.759Z,99.90
2022-10-29T04:30:43.306Z,99.90
2022-10-29T04:33:10.206Z,99.90
2022-10-29T04:35:36.880Z,99.90
2022-10-29T04:38:11.695Z,99.90
2022-10-29T04:40:38.892Z,99.90
2022-10-29T04:43:05.599Z,99.90
2022-10-29T04:45:32.402Z,99.90
2022-10-29T04:48:00.826Z,99.90
2022-10-29T04:50:28.265Z,99.90
2022-10-29T04:53:02.223Z,99.90
2022-10-29T04:55:29.450Z,99.90
2022-10-29T04:57:56.668Z,99.90
2022-10-29T05:00:24.375Z,99.90
2022-10-29T05:02:52.433Z,99.90
2022-10-29T05:05:20.656Z,99.90
2022-10-29T05:07:47.770Z,99.90
2022-10-29T05:10:14.737Z,99.90
2022-10-29T05:12:41.448Z,99.90
2022-10-29T05:15:08.322Z,99.90
2022-10-29T05:17:41.092Z,99.90
2022-10-29T05:20:08.164Z,99.90
2022-10-29T05:22:35.095Z,99.90
2022-10-29T05:25:01.811Z,99.90
2022-10-29T05:27:28.578Z,99.90
2022-10-29T05:29:55.262Z,99.90
2022-10-29T05:32:22.061Z,99.90
2022-10-29T05:34:48.782Z,99.90
2022-10-29T05:37:15.495Z,99.90
2022-10-29T05:39:42.234Z,99.90
2022-10-29T05:42:08.948Z,99.90
2022-10-29T05:44:35.676Z,99.90
2022-10-29T05:47:02.512Z,99.90
2022-10-29T05:49:29.367Z,99.90
2022-10-29T05:51:56.044Z,99.90
2022-10-29T05:54:22.819Z,99.90
2022-10-29T05:56:49.562Z,99.90
2022-10-29T05:59:16.375Z,99.90
2022-10-29T06:01:43.091Z,99.90
2022-10-29T06:04:09.877Z,99.90
2022-10-29T06:06:36.566Z,99.90
2022-10-29T06:09:03.382Z,99.90
2022-10-29T06:11:30.131Z,99.90
2022-10-29T06:13:57.289Z,99.90
2022-10-29T06:16:23.974Z,99.90
2022-10-29T06:18:50.762Z,99.90
2022-10-29T06:21:17.605Z,99.90
2022-10-29T06:23:44.255Z,99.90
2022-10-29T06:26:10.910Z,99.90
2022-10-29T06:28:37.858Z,99.90
2022-10-29T06:31:04.625Z,99.90
2022-10-29T06:33:31.354Z,99.90
2022-10-29T06:36:01.659Z,99.90
2022-10-29T06:38:28.536Z,99.90
2022-10-29T06:40:55.856Z,99.90
2022-10-29T06:43:22.641Z,99.90
2022-10-29T06:45:50.081Z,99.90
2022-10-29T06:48:21.788Z,99.90
2022-10-29T06:50:49.441Z,99.90
2022-10-29T06:53:16.278Z,99.90
2022-10-29T06:55:42.924Z,99.90
2022-10-29T06:58:14.887Z,99.90
2022-10-29T07:00:42.807Z,99.90
2022-10-29T07:03:13.681Z,99.90
2022-10-29T07:05:40.614Z,99.90
2022-10-29T07:08:07.743Z,99.90
2022-10-29T07:10:35.156Z,99.90
2022-10-29T07:13:02.365Z,99.90
2022-10-29T07:15:30.932Z,99.90
2022-10-29T07:18:04.924Z,99.90
2022-10-29T07:20:34.336Z,99.90
2022-10-29T07:23:01.472Z,99.90
2022-10-29T07:25:29.879Z,99.90
2022-10-29T07:28:06.782Z,99.90
2022-10-29T07:30:34.321Z,99.90
2022-10-29T07:33:00.957Z,99.90
2022-10-29T07:35:27.813Z,99.90
2022-10-29T07:38:05.429Z,99.90
2022-10-29T07:40:38.252Z,99.90
2022-10-29T07:43:05.092Z,99.90
2022-10-29T07:45:32.629Z,99.90
2022-10-29T07:48:04.448Z,99.90
2022-10-29T07:50:32.079Z,99.90
2022-10-29T07:53:03.299Z,99.90
2022-10-29T07:58:02.564Z,99.90
2022-10-29T08:00:35.011Z,99.90
2022-10-29T08:03:01.704Z,99.90
2022-10-29T08:05:29.919Z,99.90
2022-10-29T08:07:57.785Z,99.90
2022-10-29T08:10:25.480Z,99.90
2022-10-29T08:12:54.180Z,99.90
2022-10-29T08:15:22.027Z,99.90
2022-10-29T08:17:49.778Z,99.90
2022-10-29T08:20:17.064Z,99.90
2022-10-29T08:22:43.900Z,99.90
2022-10-29T08:25:11.231Z,99.90
2022-10-29T08:27:38.665Z,99.90
2022-10-29T08:30:10.595Z,99.90
2022-10-29T08:32:37.326Z,99.90
2022-10-29T08:35:04.439Z,99.90
2022-10-29T08:37:31.680Z,99.90
2022-10-29T08:39:58.403Z,99.90
2022-10-29T08:42:40.026Z,99.90
2022-10-29T08:45:23.677Z,99.90
2022-10-29T08:48:05.704Z,99.90
2022-10-29T08:50:41.033Z,99.90
2022-10-29T08:53:38.504Z,99.90
2022-10-29T08:56:18.247Z,99.90
2022-10-29T08:58:59.874Z,99.90
2022-10-29T09:01:26.740Z,99.90
2022-10-29T09:03:54.310Z,99.90
2022-10-29T09:06:31.059Z,99.90
2022-10-29T09:09:20.600Z,99.90
2022-10-29T09:12:09.674Z,99.90
2022-10-29T09:14:44.981Z,99.90
2022-10-29T09:17:27.991Z,99.90
2022-10-29T09:19:57.466Z,99.90
2022-10-29T09:22:29.752Z,99.90
2022-10-29T09:25:33.157Z,99.90
2022-10-29T09:28:05.678Z,99.90
2022-10-29T09:30:43.619Z,99.90
2022-10-29T09:33:17.259Z,99.90
2022-10-29T09:35:49.751Z,99.90
2022-10-29T09:38:25.528Z,99.90
2022-10-29T09:40:52.710Z,99.90
2022-10-29T09:43:41.628Z,99.90
2022-10-29T09:46:50.571Z,99.90
2022-10-29T09:49:17.500Z,99.90
2022-10-29T09:51:58.225Z,99.90
2022-10-29T09:54:27.856Z,99.90
2022-10-29T09:56:56.175Z,99.90
2022-10-29T09:59:37.283Z,99.90
2022-10-29T10:02:20.604Z,99.90
2022-10-29T10:04:51.186Z,99.90
2022-10-29T10:07:20.710Z,99.90
2022-10-29T10:09:54.382Z,99.90
2022-10-29T10:12:27.608Z,99.90
2022-10-29T10:15:28.324Z,99.90
2022-10-29T10:17:56.753Z,99.90
2022-10-29T10:20:30.047Z,99.90
2022-10-29T10:22:56.973Z,99.90
2022-10-29T10:25:40.584Z,99.90
2022-10-29T10:28:24.482Z,99.90
2022-10-29T10:31:13.392Z,99.90
2022-10-29T10:33:54.184Z,99.90
2022-10-29T10:36:24.604Z,99.90
2022-10-29T10:38:55.010Z,99.90
2022-10-29T10:41:35.244Z,99.90
2022-10-29T10:44:04.861Z,99.90
2022-10-29T10:46:39.715Z,99.90
2022-10-29T10:49:14.328Z,99.90
2022-10-29T10:51:46.491Z,99.90
2022-10-29T10:54:36.978Z,99.90
2022-10-29T10:57:13.368Z,99.90
2022-10-29T11:00:06.726Z,99.90
2022-10-29T11:03:06.247Z,98.70
2022-10-29T11:05:37.921Z,94.00
2022-10-29T11:08:21.022Z,89.20
2022-10-29T11:10:55.027Z,78.70
2022-10-29T11:13:42.281Z,73.30
2022-10-29T11:16:28.059Z,66.70
2022-10-29T11:19:23.246Z,61.80
2022-10-29T11:22:22.871Z,60.40
2022-10-29T11:25:02.913Z,56.20
2022-10-29T11:27:44.533Z,53.70
2022-10-29T11:30:14.630Z,50.70
2022-10-29T11:32:50.981Z,49.00
2022-10-29T11:35:36.836Z,47.20
2022-10-29T11:38:11.849Z,46.40
2022-10-29T11:40:44.317Z,46.00
2022-10-29T11:43:18.378Z,47.00
2022-10-29T11:46:09.139Z,46.80
2022-10-29T11:49:02.860Z,45.90
2022-10-29T11:51:40.699Z,44.90
2022-10-29T11:54:28.956Z,44.40
2022-10-29T11:57:10.154Z,43.30
2022-10-29T11:59:45.594Z,42.30
2022-10-29T12:02:49.587Z,41.80
2022-10-29T12:05:22.807Z,42.10
2022-10-29T12:08:20.479Z,40.70
2022-10-29T12:10:59.175Z,40.20
2022-10-29T12:13:40.753Z,40.40
2022-10-29T12:16:24.224Z,40.90
2022-10-29T12:18:59.735Z,40.40
2022-10-29T12:21:47.468Z,39.60
2022-10-29T12:24:29.405Z,38.90
2022-10-29T12:27:05.526Z,38.70
2022-10-29T12:29:56.127Z,39.70
2022-10-29T12:32:31.606Z,38.30
2022-10-29T12:35:20.060Z,39.60
2022-10-29T12:38:09.550Z,38.40
2022-10-29T12:40:41.677Z,37.90
2022-10-29T12:43:22.761Z,37.90
2022-10-29T12:49:15.864Z,37.90
2022-10-29T12:51:51.343Z,38.50
2022-10-29T12:54:36.351Z,39.80
2022-10-29T12:57:16.915Z,38.30
2022-10-29T12:59:44.894Z,37.90
2022-10-29T13:02:27.331Z,37.50
2022-10-29T13:05:06.692Z,37.80
2022-10-29T13:07:34.501Z,38.20
2022-10-29T13:10:27.065Z,38.60
2022-10-29T13:13:23.457Z,38.90
2022-10-29T13:16:00.536Z,39.50
2022-10-29T13:18:41.686Z,39.30
2022-10-29T13:21:08.961Z,39.20
2022-10-29T13:23:37.547Z,38.40
2022-10-29T13:26:06.592Z,38.00
2022-10-29T13:28:36.076Z,38.30
2022-10-29T13:31:08.729Z,37.80
2022-10-29T13:33:38.283Z,37.80
2022-10-29T13:36:28.110Z,38.00
2022-10-29T13:39:05.760Z,38.70
2022-10-29T13:41:42.543Z,39.60
2022-10-29T13:44:10.105Z,39.50
2022-10-29T13:46:57.770Z,39.40
2022-10-29T13:49:52.829Z,39.50
2022-10-29T13:52:21.859Z,40.30
2022-10-29T13:55:08.810Z,40.40
2022-10-29T13:57:38.523Z,40.60
2022-10-29T14:00:10.151Z,40.80
2022-10-29T14:02:38.943Z,40.90
2022-10-29T14:05:14.487Z,41.50
2022-10-29T14:08:08.504Z,42.50
2022-10-29T14:10:41.413Z,42.90
2022-10-29T14:13:37.241Z,43.50
2022-10-29T14:16:06.750Z,45.30
2022-10-29T14:18:41.475Z,47.70
2022-10-29T14:21:19.238Z,49.90
2022-10-29T14:24:18.413Z,53.40
2022-10-29T14:26:46.116Z,54.80
2022-10-29T14:29:18.132Z,56.30
2022-10-29T14:31:44.908Z,57.50
2022-10-29T14:34:27.998Z,58.90
2022-10-29T14:37:03.385Z,60.10
2022-10-29T14:39:59.014Z,61.50
2022-10-29T14:42:33.119Z,62.90
2022-10-29T14:45:02.063Z,64.30
2022-10-29T14:47:33.300Z,65.80
2022-10-29T14:50:02.995Z,66.20
2022-10-29T14:52:34.416Z,67.00
2022-10-29T14:55:02.607Z,68.70
2022-10-29T14:57:32.624Z,72.70
2022-10-29T15:00:01.335Z,74.20
2022-10-29T15:02:38.230Z,77.70
2022-10-29T15:05:20.596Z,80.90
2022-10-29T15:07:47.224Z,83.90
2022-10-29T15:10:21.950Z,87.90
2022-10-29T15:12:49.795Z,89.90
2022-10-29T15:15:19.163Z,88.50
2022-10-29T15:17:51.749Z,88.80
2022-10-29T15:20:20.326Z,90.00
2022-10-29T15:22:46.973Z,90.60
2022-10-29T15:25:18.826Z,90.70
2022-10-29T15:27:45.506Z,92.00
2022-10-29T15:30:18.809Z,91.60
2022-10-29T15:32:45.795Z,93.10
2022-10-29T15:35:18.017Z,93.10
2022-10-29T15:37:46.459Z,93.50
2022-10-29T15:40:17.204Z,94.00
2022-10-29T15:42:45.373Z,94.60
2022-10-29T15:47:48.379Z,96.20
2022-10-29T15:50:18.466Z,95.20
2022-10-29T15:52:47.086Z,96.10
2022-10-29T15:55:26.081Z,96.50
2022-10-29T15:57:54.183Z,97.70
2022-10-29T16:00:22.433Z,98.70
2022-10-29T16:02:49.385Z,99.40
2022-10-29T16:05:16.479Z,99.90
2022-10-29T16:07:43.617Z,99.90
2022-10-29T16:10:17.457Z,99.90
2022-10-29T16:12:44.281Z,99.90
2022-10-29T16:15:15.060Z,99.90
2022-10-29T16:17:41.698Z,99.90
2022-10-29T16:20:09.781Z,99.90
2022-10-29T16:22:36.448Z,99.90
2022-10-29T16:25:03.189Z,99.90
2022-10-29T16:27:29.786Z,99.90
2022-10-29T16:29:56.392Z,99.90
2022-10-29T16:32:23.755Z,99.90
2022-10-29T16:34:50.414Z,99.90
2022-10-29T16:37:17.899Z,99.90
2022-10-29T16:39:44.784Z,99.90
2022-10-29T16:42:34.706Z,99.90
2022-10-29T16:45:01.824Z,99.90
2022-10-29T16:47:28.501Z,99.90
2022-10-29T16:49:55.201Z,99.90
2022-10-29T16:52:24.093Z,99.90
2022-10-29T16:54:53.073Z,99.90
2022-10-29T16:57:19.722Z,99.90
2022-10-29T16:59:46.354Z,99.90
2022-10-29T17:02:12.961Z,99.90
2022-10-29T17:04:39.657Z,99.90
2022-10-29T17:07:06.424Z,99.90
2022-10-29T17:09:35.338Z,99.90
2022-10-29T17:12:02.336Z,99.90
2022-10-29T17:14:29.022Z,99.90
2022-10-29T17:16:56.999Z,99.90
2022-10-29T17:19:23.665Z,99.90
2022-10-29T17:21:50.251Z,99.90
2022-10-29T17:24:16.840Z,99.90
2022-10-29T17:26:43.490Z,99.90
2022-10-29T17:29:10.116Z,99.90
2022-10-29T17:31:36.765Z,99.90
2022-10-29T17:34:03.528Z,99.90
2022-10-29T17:36:30.146Z,99.90
2022-10-29T17:38:56.729Z,99.90
2022-10-29T17:41:23.399Z,99.90
2022-10-29T17:43:50.024Z,99.90
2022-10-29T17:46:18.014Z,99.90
2022-10-29T17:48:44.909Z,99.90
2022-10-29T17:51:11.643Z,99.90
2022-10-29T17:53:39.146Z,99.90
2022-10-29T17:56:05.956Z,99.90
2022-10-29T17:58:32.553Z,99.90
2022-10-29T18:01:03.420Z,99.90
2022-10-29T18:03:30.155Z,99.90
2022-10-29T18:06:03.980Z,99.90
2022-10-29T18:08:30.816Z,99.90
2022-10-29T18:11:04.768Z,99.90
2022-10-29T18:13:32.226Z,99.90
2022-10-29T18:15:59.844Z,99.90
2022-10-29T18:18:26.442Z,99.90
2022-10-29T18:20:53.187Z,99.90
2022-10-29T18:23:19.745Z,99.90
2022-10-29T18:25:57.584Z,99.90
2022-10-29T18:28:24.173Z,99.90
2022-10-29T18:30:50.844Z,99.90
2022-10-29T18:33:17.664Z,99.90
2022-10-29T18:35:44.200Z,99.90
2022-10-29T18:38:10.774Z,99.90
2022-10-29T18:40:37.734Z,99.90
2022-10-29T18:43:04.470Z,99.90
2022-10-29T18:45:31.305Z,99.90
2022-10-29T18:47:58.573Z,99.90
2022-10-29T18:50:25.629Z,99.90
2022-10-29T18:52:52.425Z,99.90
2022-10-29T18:55:19.265Z,99.90
2022-10-29T18:57:47.532Z,99.90
2022-10-29T19:00:14.491Z,99.90
2022-10-29T19:02:41.262Z,99.90
2022-10-29T19:05:08.007Z,99.90
2022-10-29T19:07:34.745Z,99.90
2022-10-29T19:10:01.785Z,99.90
2022-10-29T19:12:28.379Z,99.90
2022-10-29T19:14:54.975Z,99.90
2022-10-29T19:17:21.787Z,99.90
2022-10-29T19:19:48.369Z,99.90
2022-10-29T19:22:14.928Z,99.90
2022-10-29T19:24:41.563Z,99.90
2022-10-29T19:27:08.114Z,99.90
2022-10-29T19:29:34.686Z,99.90
2022-10-29T19:32:01.322Z,99.90
2022-10-29T19:34:27.949Z,99.90
2022-10-29T19:36:54.571Z,99.90
2022-10-29T19:39:21.194Z,99.90
2022-10-29T19:41:47.809Z,99.90
2022-10-29T19:44:14.471Z,99.90
2022-10-29T19:46:43.022Z,99.90
2022-10-29T19:49:09.595Z,99.90
2022-10-29T19:51:36.206Z,99.90
2022-10-29T19:54:04.167Z,99.90
2022-10-29T19:56:30.805Z,99.90
2022-10-29T19:58:57.360Z,99.90
2022-10-29T20:01:24.591Z,99.90
2022-10-29T20:03:51.236Z,99.90
2022-10-29T20:06:17.998Z,99.90
2022-10-29T20:08:44.651Z,99.90
2022-10-29T20:11:11.196Z,99.90
2022-10-29T20:13:39.695Z,99.90
2022-10-29T20:16:07.621Z,99.90
2022-10-29T20:18:34.983Z,99.90
2022-10-29T20:21:01.687Z,99.90
2022-10-29T20:23:28.456Z,99.90
2022-10-29T20:25:55.060Z,99.90
2022-10-29T20:28:21.778Z,99.90
2022-10-29T20:30:48.453Z,99.90
2022-10-29T20:33:15.058Z,99.90
2022-10-29T20:35:41.770Z,99.90
2022-10-29T20:38:08.434Z,99.90
2022-10-29T20:40:35.052Z,99.90
2022-10-29T20:43:01.649Z,99.90
2022-10-29T20:45:28.410Z,99.90
2022-10-29T20:47:55.351Z,99.90
2022-10-29T20:50:22.257Z,99.90
2022-10-29T20:52:50.439Z,99.90
2022-10-29T20:55:17.072Z,99.90
2022-10-29T20:57:43.643Z,99.90
2022-10-29T21:00:10.610Z,99.90
2022-10-29T21:02:37.504Z,99.90
2022-10-29T21:05:04.361Z,99.90
2022-10-29T21:07:30.994Z,99.90
2022-10-29T21:09:57.540Z,99.90
2022-10-29T21:12:24.105Z,99.90
2022-10-29T21:14:50.732Z,99.90
2022-10-29T21:17:17.373Z,99.90
2022-10-29T21:19:44.089Z,99.90
2022-10-29T21:22:10.718Z,99.90
2022-10-29T21:24:38.329Z,99.90
2022-10-29T21:27:07.028Z,99.90
2022-10-29T21:29:33.682Z,99.90
2022-10-29T21:32:00.284Z,99.90
2022-10-29T21:34:26.948Z,99.90
2022-10-29T21:36:53.993Z,99.90
2022-10-29T21:39:20.672Z,99.90
2022-10-29T21:41:47.246Z,99.90
2022-10-29T21:44:13.822Z,99.90
2022-10-29T21:46:40.563Z,99.90
2022-10-29T21:49:07.093Z,99.90
2022-10-29T21:51:33.764Z,99.90
2022-10-29T21:54:00.388Z,99.90
2022-10-29T21:56:27.057Z,99.90
2022-10-29T21:58:53.744Z,99.90
2022-10-29T22:01:20.471Z,99.90
2022-10-29T22:03:47.547Z,99.90
2022-10-29T22:06:14.407Z,99.90
2022-10-29T22:08:41.572Z,99.90
2022-10-29T22:11:08.538Z,99.90
2022-10-29T22:13:35.699Z,99.90
2022-10-29T22:16:03.283Z,99.90
2022-10-29T22:18:30.029Z,99.90
2022-10-29T22:21:05.836Z,99.90
2022-10-29T22:23:32.798Z,99.90
2022-10-29T22:25:59.395Z,99.90
2022-10-29T22:28:26.038Z,99.90
2022-10-29T22:31:00.254Z,99.90
2022-10-29T22:33:27.459Z,99.90
2022-10-29T22:35:54.155Z,99.90
2022-10-29T22:38:20.901Z,99.90
2022-10-29T22:40:47.601Z,99.90
2022-10-29T22:43:15.098Z,99.90
2022-10-29T22:45:43.197Z,99.90
2022-10-29T22:48:09.776Z,99.90
2022-10-29T22:50:36.319Z,99.90
2022-10-29T22:53:02.871Z,99.90
2022-10-29T22:55:29.513Z,99.90
2022-10-29T22:57:56.348Z,99.90
2022-10-29T23:00:22.878Z,99.90
2022-10-29T23:02:49.755Z,99.90
2022-10-29T23:05:16.389Z,99.90
2022-10-29T23:07:43.125Z,99.90
2022-10-29T23:10:09.811Z,99.90
2022-10-29T23:12:38.108Z,99.90
2022-10-29T23:15:05.126Z,99.90
2022-10-29T23:17:31.976Z,99.90
2022-10-29T23:19:58.701Z,99.90
2022-10-29T23:22:27.570Z,99.90
2022-10-29T23:24:54.560Z,99.90
2022-10-29T23:27:21.189Z,99.90
2022-10-29T23:29:47.755Z,99.90
2022-10-29T23:32:14.363Z,99.90
2022-10-29T23:34:40.972Z,99.90
2022-10-29T23:37:09.934Z,99.90
2022-10-29T23:39:37.042Z,99.90
2022-10-29T23:42:03.702Z,99.90
2022-10-29T23:44:30.263Z,99.90
2022-10-29T23:46:56.920Z,99.90
2022-10-29T23:49:23.460Z,99.90
2022-10-29T23:51:50.085Z,99.90
2022-10-29T23:54:16.756Z,99.90
2022-10-29T23:56:43.412Z,99.90
2022-10-29T23:59:09.975Z,99.90
